TimeMDT,TemperatureF,Dew PointF,Humidity,Sea Level PressureIn,VisibilityMPH,Wind Direction,Wind SpeedMPH,Gust SpeedMPH,PrecipitationIn,Events,Conditions,WindDirDegrees,DateUTC
12:53 AM,62.1,28.0,28,29.69,10.0,SE,10.4,-,N/A,,Clear,140,2013-06-03 06:53:00
1:53 AM,61.0,28.0,29,29.67,10.0,ESE,8.1,-,N/A,,Clear,110,2013-06-03 07:53:00
2:53 AM,57.0,28.0,33,29.68,10.0,ESE,8.1,-,N/A,,Clear,110,2013-06-03 08:53:00
3:53 AM,57.0,28.0,33,29.67,10.0,SE,6.9,-,N/A,,Clear,130,2013-06-03 09:53:00
4:53 AM,55.9,28.9,36,29.69,10.0,SSE,5.8,-,N/A,,Clear,150,2013-06-03 10:53:00
5:53 AM,55.0,28.9,37,29.71,10.0,SE,9.2,-,N/A,,Clear,130,2013-06-03 11:53:00
6:53 AM,61.0,30.9,32,29.71,10.0,SE,8.1,-,N/A,,Clear,130,2013-06-03 12:53:00
7:53 AM,64.0,34.0,33,29.71,10.0,SE,8.1,-,N/A,,Clear,140,2013-06-03 13:53:00
8:53 AM,73.0,36.0,26,29.70,10.0,Variable,3.5,-,N/A,,Clear,0,2013-06-03 14:53:00
9:53 AM,73.9,37.0,26,29.73,10.0,NNW,4.6,-,N/A,,Clear,340,2013-06-03 15:53:00
10:53 AM,82.0,26.1,13,29.71,10.0,WNW,8.1,-,N/A,,Clear,290,2013-06-03 16:53:00
11:53 AM,86.0,21.9,10,29.70,10.0,WSW,18.4,26.5,N/A,,Clear,250,2013-06-03 17:53:00
12:53 PM,84.9,24.1,11,29.69,10.0,SW,20.7,29.9,N/A,,Clear,220,2013-06-03 18:53:00
1:53 PM,84.0,27.0,13,29.69,9.0,WSW,25.3,36.8,N/A,,Partly Cloudy,240,2013-06-03 19:53:00
2:53 PM,84.0,28.0,13,29.70,9.0,SW,27.6,38.0,N/A,,Clear,230,2013-06-03 20:53:00
3:53 PM,82.9,28.0,14,29.71,10.0,WSW,20.7,27.6,N/A,,Clear,240,2013-06-03 21:53:00
4:53 PM,84.9,28.0,13,29.69,10.0,SW,20.7,27.6,N/A,,Clear,220,2013-06-03 22:53:00
5:53 PM,84.0,28.9,14,29.69,10.0,SW,15.0,20.7,N/A,,Clear,220,2013-06-03 23:53:00
6:53 PM,81.0,28.9,15,29.69,10.0,WSW,23.0,31.1,N/A,,Clear,240,2013-06-04 00:53:00
7:53 PM,78.1,28.9,17,29.70,10.0,SW,12.7,-,N/A,,Clear,220,2013-06-04 01:53:00
8:53 PM,73.9,28.9,19,29.69,10.0,SSW,8.1,-,N/A,,Clear,210,2013-06-04 02:53:00
9:53 PM,68.0,32.0,26,29.74,10.0,SE,4.6,-,N/A,,Clear,140,2013-06-04 03:53:00
10:53 PM,66.9,30.0,25,29.74,10.0,SSW,8.1,-,N/A,,Clear,200,2013-06-04 04:53:00
11:53 PM,66.9,30.9,26,29.74,10.0,Calm,Calm,-,N/A,,Clear,0,2013-06-04 05:53:00